createdAt,value
2019-06-26T00:00:18.891Z,27.29
2019-06-26T00:01:18.877Z,27.33
2019-06-26T00:02:18.858Z,27.29
2019-06-26T00:03:18.847Z,27.36
2019-06-26T00:04:18.837Z,27.39
2019-06-26T00:05:18.900Z,27.39
2019-06-26T00:06:18.815Z,27.38
2019-06-26T00:07:18.827Z,27.48
2019-06-26T00:08:18.793Z,27.47
2019-06-26T00:09:18.784Z,27.42
2019-06-26T00:10:18.781Z,27.47
2019-06-26T00:11:18.762Z,27.50
2019-06-26T00:12:18.777Z,27.43
2019-06-26T00:13:26.210Z,27.48
2019-06-26T00:14:19.727Z,27.48
2019-06-26T00:15:18.728Z,27.51
2019-06-26T00:16:18.707Z,27.57
2019-06-26T00:17:18.700Z,27.58
2019-06-26T00:18:18.691Z,27.66
2019-06-26T00:19:18.680Z,27.57
2019-06-26T00:20:18.677Z,27.61
2019-06-26T00:21:21.866Z,27.67
2019-06-26T00:22:18.644Z,27.57
2019-06-26T00:23:18.632Z,27.54
2019-06-26T00:24:18.622Z,27.53
2019-06-26T00:25:18.618Z,27.53
2019-06-26T00:26:18.601Z,27.53
2019-06-26T00:27:18.588Z,27.54
2019-06-26T00:28:18.581Z,27.58
2019-06-26T00:29:18.568Z,27.58
2019-06-26T00:30:18.572Z,27.54
2019-06-26T00:31:18.547Z,27.48
2019-06-26T00:32:18.540Z,27.53
2019-06-26T00:33:18.532Z,27.48
2019-06-26T00:34:18.514Z,27.53
2019-06-26T00:35:18.513Z,27.47
2019-06-26T00:36:18.493Z,27.46
2019-06-26T00:37:18.482Z,27.46
2019-06-26T00:38:18.470Z,27.47
2019-06-26T00:39:18.539Z,27.47
2019-06-26T00:40:18.464Z,27.42
2019-06-26T00:41:18.439Z,27.36
2019-06-26T00:42:18.426Z,27.46
2019-06-26T00:43:18.414Z,27.35
2019-06-26T00:44:18.409Z,27.48
2019-06-26T00:45:18.393Z,27.39
2019-06-26T00:46:18.393Z,27.46
2019-06-26T00:47:18.370Z,27.43
2019-06-26T00:48:18.360Z,27.51
2019-06-26T00:49:18.350Z,27.35
2019-06-26T00:50:18.338Z,27.29
2019-06-26T00:51:18.336Z,27.39
2019-06-26T00:52:18.317Z,27.35
2019-06-26T00:53:18.306Z,27.26
2019-06-26T00:54:18.300Z,27.35
2019-06-26T00:55:18.283Z,27.29
2019-06-26T00:56:18.281Z,27.28
2019-06-26T00:57:18.262Z,27.28
2019-06-26T00:58:18.256Z,27.28
2019-06-26T00:59:18.241Z,27.26
2019-06-26T01:00:18.229Z,27.24
2019-06-26T01:01:18.231Z,27.20
2019-06-26T01:02:18.208Z,27.28
2019-06-26T01:03:18.196Z,27.16
2019-06-26T01:04:18.189Z,27.14
2019-06-26T01:05:18.229Z,27.24
2019-06-26T01:06:18.173Z,27.17
2019-06-26T01:07:18.155Z,27.17
2019-06-26T01:08:18.143Z,27.21
2019-06-26T01:09:18.131Z,27.16
2019-06-26T01:10:18.131Z,27.06
2019-06-26T01:11:21.521Z,27.09
2019-06-26T01:12:18.100Z,27.06
2019-06-26T01:13:18.089Z,27.13
2019-06-26T01:14:18.077Z,27.04
2019-06-26T01:15:18.076Z,27.13
2019-06-26T01:16:18.067Z,26.99
2019-06-26T01:17:18.045Z,27.06
2019-06-26T01:18:18.034Z,26.96
2019-06-26T01:19:18.024Z,27.02
2019-06-26T01:20:18.012Z,26.99
2019-06-26T01:21:18.010Z,26.89
2019-06-26T01:22:17.997Z,26.98
2019-06-26T01:23:17.979Z,26.87
2019-06-26T01:24:17.972Z,26.84
2019-06-26T01:25:17.958Z,26.89
2019-06-26T01:26:17.969Z,26.79
2019-06-26T01:27:17.937Z,26.84
2019-06-26T01:28:17.925Z,26.81
2019-06-26T01:29:17.914Z,26.77
2019-06-26T01:30:17.904Z,26.80
2019-06-26T01:31:17.904Z,26.77
2019-06-26T01:32:17.954Z,26.72
2019-06-26T01:33:17.871Z,26.80
2019-06-26T01:34:17.861Z,26.65
2019-06-26T01:35:17.851Z,26.72
2019-06-26T01:36:17.855Z,26.68
2019-06-26T01:37:17.831Z,26.76
2019-06-26T01:38:17.816Z,26.72
2019-06-26T01:39:17.807Z,26.74
2019-06-26T01:40:17.796Z,26.72
2019-06-26T01:41:17.804Z,26.72
2019-06-26T01:42:17.776Z,26.72
2019-06-26T01:43:17.767Z,26.69
2019-06-26T01:44:17.756Z,26.65
2019-06-26T01:45:17.744Z,26.64
2019-06-26T01:46:17.741Z,26.65
2019-06-26T01:47:17.718Z,26.67
2019-06-26T01:48:17.709Z,26.57
2019-06-26T01:49:17.697Z,26.57
2019-06-26T01:50:17.687Z,26.52
2019-06-26T01:51:17.683Z,26.52
2019-06-26T01:52:17.665Z,26.47
2019-06-26T01:53:17.654Z,26.50
2019-06-26T01:54:17.648Z,26.47
2019-06-26T01:55:17.635Z,26.49
2019-06-26T01:56:17.628Z,26.42
2019-06-26T01:57:17.612Z,26.44
2019-06-26T01:58:17.603Z,26.44
2019-06-26T01:59:17.589Z,26.43
2019-06-26T02:00:17.577Z,26.37
2019-06-26T02:01:17.574Z,26.31
2019-06-26T02:02:17.555Z,26.29
2019-06-26T02:03:17.545Z,26.36
2019-06-26T02:04:17.535Z,26.29
2019-06-26T02:05:17.522Z,26.22
2019-06-26T02:06:17.520Z,26.18
2019-06-26T02:07:17.501Z,26.12
2019-06-26T02:08:17.491Z,26.11
2019-06-26T02:09:17.478Z,26.11
2019-06-26T02:10:17.467Z,26.12
2019-06-26T02:11:17.469Z,26.22
2019-06-26T02:12:17.447Z,26.02
2019-06-26T02:13:17.435Z,26.02
2019-06-26T02:14:30.480Z,25.99
2019-06-26T02:15:18.413Z,25.94
2019-06-26T02:16:17.422Z,25.86
2019-06-26T02:17:17.408Z,25.83
2019-06-26T02:18:17.378Z,25.82
2019-06-26T02:19:17.367Z,25.79
2019-06-26T02:20:17.358Z,25.87
2019-06-26T02:21:17.349Z,25.87
2019-06-26T02:22:17.346Z,25.79
2019-06-26T02:23:17.323Z,25.82
2019-06-26T02:24:17.314Z,25.83
2019-06-26T02:25:17.301Z,25.82
2019-06-26T02:26:17.291Z,25.77
2019-06-26T02:27:17.287Z,25.84
2019-06-26T02:28:17.267Z,25.77
2019-06-26T02:29:17.257Z,25.69
2019-06-26T02:30:17.251Z,25.82
2019-06-26T02:31:17.234Z,25.82
2019-06-26T02:32:17.232Z,25.77
2019-06-26T02:33:17.212Z,25.77
2019-06-26T02:34:17.205Z,25.79
2019-06-26T02:35:17.198Z,25.75
2019-06-26T02:36:17.181Z,25.79
2019-06-26T02:37:17.181Z,25.71
2019-06-26T02:38:17.162Z,25.69
2019-06-26T02:39:17.148Z,25.72
2019-06-26T02:40:17.183Z,25.80
2019-06-26T02:41:17.124Z,25.74
2019-06-26T02:42:17.120Z,25.64
2019-06-26T02:43:17.108Z,25.68
2019-06-26T02:44:17.099Z,25.71
2019-06-26T02:45:17.079Z,25.67
2019-06-26T02:46:17.067Z,25.68
2019-06-26T02:47:20.152Z,25.61
2019-06-26T02:48:17.056Z,25.64
2019-06-26T02:49:17.035Z,25.57
2019-06-26T02:50:17.024Z,25.56
2019-06-26T02:51:17.013Z,25.52
2019-06-26T02:52:17.023Z,25.61
2019-06-26T02:53:16.991Z,25.59
2019-06-26T02:54:16.987Z,25.46
2019-06-26T02:55:16.968Z,25.54
2019-06-26T02:56:16.961Z,25.53
2019-06-26T02:57:16.993Z,25.49
2019-06-26T02:58:16.935Z,25.50
2019-06-26T02:59:16.925Z,25.52
2019-06-26T03:00:16.914Z,25.52
2019-06-26T03:01:16.908Z,25.54
2019-06-26T03:02:16.888Z,25.46
2019-06-26T03:03:16.890Z,25.47
2019-06-26T03:04:16.867Z,25.50
2019-06-26T03:05:16.856Z,25.47
2019-06-26T03:06:16.844Z,25.47
2019-06-26T03:07:16.835Z,25.53
2019-06-26T03:08:16.831Z,25.39
2019-06-26T03:09:16.813Z,25.53
2019-06-26T03:10:16.799Z,25.38
2019-06-26T03:11:16.788Z,25.42
2019-06-26T03:12:16.787Z,25.54
2019-06-26T03:13:16.777Z,25.43
2019-06-26T03:14:16.756Z,25.38
2019-06-26T03:15:16.744Z,25.43
2019-06-26T03:16:16.737Z,25.38
2019-06-26T03:17:16.721Z,25.39
2019-06-26T03:18:16.720Z,25.30
2019-06-26T03:19:16.700Z,25.30
2019-06-26T03:20:16.689Z,25.38
2019-06-26T03:21:16.678Z,25.32
2019-06-26T03:22:16.665Z,25.38
2019-06-26T03:23:16.666Z,25.35
2019-06-26T03:24:16.645Z,25.37
2019-06-26T03:25:16.632Z,25.30
2019-06-26T03:26:16.621Z,25.34
2019-06-26T03:27:16.610Z,25.28
2019-06-26T03:28:16.609Z,25.32
2019-06-26T03:29:16.587Z,25.35
2019-06-26T03:30:16.580Z,25.31
2019-06-26T03:31:16.571Z,25.34
2019-06-26T03:32:16.557Z,25.34
2019-06-26T03:33:16.557Z,25.31
2019-06-26T03:34:16.535Z,25.25
2019-06-26T03:35:16.524Z,25.27
2019-06-26T03:36:16.513Z,25.27
2019-06-26T03:37:16.517Z,25.31
2019-06-26T03:38:16.501Z,25.32
2019-06-26T03:39:16.478Z,25.28
2019-06-26T03:40:16.467Z,25.25
2019-06-26T03:41:16.496Z,25.30
2019-06-26T03:42:16.444Z,25.31
2019-06-26T03:43:16.442Z,25.27
2019-06-26T03:44:16.421Z,25.27
2019-06-26T03:45:25.523Z,25.37
2019-06-26T03:46:17.398Z,25.28
2019-06-26T03:47:16.389Z,25.35
2019-06-26T03:48:16.387Z,25.34
2019-06-26T03:49:16.367Z,25.34
2019-06-26T03:50:16.361Z,25.32
2019-06-26T03:51:16.345Z,25.30
2019-06-26T03:52:16.334Z,25.32
2019-06-26T03:53:16.333Z,25.22
2019-06-26T03:54:16.315Z,25.27
2019-06-26T03:55:16.306Z,25.34
2019-06-26T03:56:16.291Z,25.16
2019-06-26T03:57:16.285Z,25.20
2019-06-26T03:58:16.286Z,25.22
2019-06-26T03:59:16.260Z,25.22
2019-06-26T04:00:16.248Z,25.35
2019-06-26T04:01:16.275Z,25.22
2019-06-26T04:02:16.227Z,25.31
2019-06-26T04:03:16.328Z,25.31
2019-06-26T04:04:16.229Z,25.35
2019-06-26T04:05:16.190Z,25.30
2019-06-26T04:06:16.180Z,25.30
2019-06-26T04:07:16.170Z,25.34
2019-06-26T04:08:16.192Z,25.35
2019-06-26T04:09:16.155Z,25.22
2019-06-26T04:10:16.136Z,25.32
2019-06-26T04:11:16.128Z,25.31
2019-06-26T04:12:16.117Z,25.35
2019-06-26T04:13:16.102Z,25.37
2019-06-26T04:14:16.104Z,25.34
2019-06-26T04:15:16.080Z,25.38
2019-06-26T04:16:16.068Z,25.46
2019-06-26T04:17:16.071Z,25.43
2019-06-26T04:18:16.047Z,25.47
2019-06-26T04:19:16.045Z,25.35
2019-06-26T04:20:16.025Z,25.43
2019-06-26T04:21:16.013Z,25.46
2019-06-26T04:22:16.005Z,25.43
2019-06-26T04:23:15.991Z,25.43
2019-06-26T04:24:15.990Z,25.52
2019-06-26T04:25:15.970Z,25.54
2019-06-26T04:26:16.021Z,25.65
2019-06-26T04:27:15.951Z,25.67
2019-06-26T04:28:15.939Z,25.67
2019-06-26T04:29:15.947Z,25.77
2019-06-26T04:30:15.913Z,25.79
2019-06-26T04:31:15.903Z,25.75
2019-06-26T04:32:15.894Z,25.80
2019-06-26T04:33:15.887Z,25.80
2019-06-26T04:34:15.945Z,25.71
2019-06-26T04:35:15.859Z,25.72
2019-06-26T04:36:15.846Z,25.72
2019-06-26T04:37:15.836Z,25.79
2019-06-26T04:38:15.838Z,25.74
2019-06-26T04:39:15.822Z,25.67
2019-06-26T04:40:15.813Z,25.80
2019-06-26T04:41:15.791Z,25.71
2019-06-26T04:42:15.780Z,25.71
2019-06-26T04:43:15.771Z,25.75
2019-06-26T04:44:15.769Z,25.77
2019-06-26T04:45:15.748Z,25.80
2019-06-26T04:46:15.737Z,25.80
2019-06-26T04:47:15.728Z,25.80
2019-06-26T04:48:15.720Z,25.90
2019-06-26T04:49:15.715Z,25.72
2019-06-26T04:50:15.697Z,25.90
2019-06-26T04:51:15.682Z,25.83
2019-06-26T04:52:15.673Z,25.91
2019-06-26T04:53:15.658Z,25.89
2019-06-26T04:54:15.650Z,25.83
2019-06-26T04:55:15.676Z,25.91
2019-06-26T04:56:15.625Z,26.01
2019-06-26T04:57:15.614Z,25.83
2019-06-26T04:58:15.606Z,26.01
2019-06-26T04:59:15.592Z,26.01
2019-06-26T05:00:15.590Z,26.06
2019-06-26T05:01:15.571Z,25.99
2019-06-26T05:02:15.559Z,26.06
2019-06-26T05:03:15.553Z,26.04
2019-06-26T05:04:15.540Z,26.09
2019-06-26T05:05:15.535Z,26.18
2019-06-26T05:06:15.515Z,26.17
2019-06-26T05:07:15.514Z,26.20
2019-06-26T05:08:15.549Z,26.24
2019-06-26T05:09:15.483Z,26.24
2019-06-26T05:10:15.484Z,26.22
2019-06-26T05:11:15.464Z,26.28
2019-06-26T05:12:15.455Z,26.29
2019-06-26T05:13:15.438Z,26.36
2019-06-26T05:14:15.430Z,26.44
2019-06-26T05:15:15.423Z,26.31
2019-06-26T05:16:19.257Z,26.39
2019-06-26T05:17:15.392Z,26.37
2019-06-26T05:18:15.382Z,26.47
2019-06-26T05:19:15.392Z,26.40
2019-06-26T05:20:15.369Z,26.47
2019-06-26T05:21:15.351Z,26.40
2019-06-26T05:22:15.454Z,26.46
2019-06-26T05:23:15.331Z,26.47
2019-06-26T05:24:15.374Z,26.55
2019-06-26T05:25:15.363Z,26.72
2019-06-26T05:26:15.296Z,26.73
2019-06-26T05:27:15.308Z,26.80
2019-06-26T05:28:15.314Z,26.99
2019-06-26T05:29:15.261Z,27.14
2019-06-26T05:30:15.264Z,27.13
2019-06-26T05:31:15.239Z,27.26
2019-06-26T05:32:15.234Z,27.51
2019-06-26T05:33:15.232Z,27.57
2019-06-26T05:34:15.206Z,27.70
2019-06-26T05:35:15.208Z,27.96
2019-06-26T05:36:15.183Z,27.95
2019-06-26T05:37:15.171Z,28.06
2019-06-26T05:38:15.164Z,28.13
2019-06-26T05:39:15.151Z,28.23
2019-06-26T05:40:15.141Z,28.32
2019-06-26T05:41:15.136Z,28.38
2019-06-26T05:42:15.124Z,28.51
2019-06-26T05:43:15.106Z,28.60
2019-06-26T05:44:15.096Z,28.73
2019-06-26T05:45:15.083Z,29.00
2019-06-26T05:46:30.056Z,28.90
2019-06-26T05:47:16.066Z,29.18
2019-06-26T05:48:17.799Z,29.26
2019-06-26T05:49:15.101Z,29.28
2019-06-26T05:50:15.045Z,29.34
2019-06-26T05:51:15.033Z,29.47
2019-06-26T05:52:16.740Z,29.56
2019-06-26T05:53:14.998Z,29.71
2019-06-26T05:54:15.000Z,29.74
2019-06-26T05:55:14.976Z,29.89
2019-06-26T05:56:14.976Z,29.87
2019-06-26T05:57:14.955Z,30.03
2019-06-26T05:58:14.947Z,30.16
2019-06-26T05:59:14.934Z,30.23
2019-06-26T06:00:14.923Z,30.33
2019-06-26T06:01:14.919Z,30.29
2019-06-26T06:02:14.905Z,30.33
2019-06-26T06:03:14.889Z,30.38
2019-06-26T06:04:14.880Z,30.49
2019-06-26T06:05:14.876Z,30.56
2019-06-26T06:06:14.866Z,30.61
2019-06-26T06:07:14.846Z,30.68
2019-06-26T06:08:14.836Z,30.72
2019-06-26T06:09:14.827Z,30.71
2019-06-26T06:10:14.816Z,30.90
2019-06-26T06:11:14.816Z,30.84
2019-06-26T06:12:14.792Z,31.04
2019-06-26T06:13:14.781Z,31.12
2019-06-26T06:14:14.774Z,31.13
2019-06-26T06:15:14.760Z,31.17
2019-06-26T06:16:14.763Z,31.24
2019-06-26T06:17:14.738Z,31.20
2019-06-26T06:18:14.727Z,31.33
2019-06-26T06:19:14.718Z,31.40
2019-06-26T06:20:14.705Z,31.38
2019-06-26T06:21:14.697Z,31.67
2019-06-26T06:22:14.693Z,31.75
2019-06-26T06:23:14.673Z,31.92
2019-06-26T06:24:14.665Z,32.06
2019-06-26T06:25:14.655Z,32.14
2019-06-26T06:26:14.641Z,32.18
2019-06-26T06:27:14.639Z,32.18
2019-06-26T06:28:14.619Z,32.20
2019-06-26T06:29:14.609Z,32.29
2019-06-26T06:30:14.603Z,32.42
2019-06-26T06:31:14.588Z,32.44
2019-06-26T06:32:14.585Z,32.64
2019-06-26T06:33:14.566Z,32.81
2019-06-26T06:34:14.556Z,32.85
2019-06-26T06:35:14.544Z,32.95
2019-06-26T06:36:14.535Z,32.98
2019-06-26T06:37:14.534Z,33.04
2019-06-26T06:38:14.512Z,33.10
2019-06-26T06:39:14.504Z,33.22
2019-06-26T06:40:14.490Z,33.20
2019-06-26T06:41:14.487Z,33.27
2019-06-26T06:42:14.484Z,33.31
2019-06-26T06:43:14.462Z,33.30
2019-06-26T06:44:14.448Z,33.37
2019-06-26T06:45:14.441Z,33.43
2019-06-26T06:46:14.428Z,33.58
2019-06-26T06:47:14.427Z,33.48
2019-06-26T06:48:14.406Z,33.46
2019-06-26T06:49:14.395Z,33.49
2019-06-26T06:50:14.386Z,33.53
2019-06-26T06:51:14.376Z,33.58
2019-06-26T06:52:16.649Z,33.79
2019-06-26T06:53:14.353Z,33.78
2019-06-26T06:54:14.343Z,33.86
2019-06-26T06:55:14.334Z,33.89
2019-06-26T06:56:14.322Z,33.94
2019-06-26T06:57:14.312Z,34.00
2019-06-26T06:58:14.310Z,33.90
2019-06-26T06:59:14.292Z,33.89
2019-06-26T07:00:14.283Z,33.94
2019-06-26T07:01:14.271Z,33.73
2019-06-26T07:02:14.259Z,33.70
2019-06-26T07:03:14.259Z,33.49
2019-06-26T07:04:14.240Z,33.45
2019-06-26T07:05:14.232Z,33.57
2019-06-26T07:06:14.221Z,33.65
2019-06-26T07:07:14.206Z,33.42
2019-06-26T07:08:14.205Z,33.26
2019-06-26T07:09:14.185Z,32.98
2019-06-26T07:10:14.177Z,32.89
2019-06-26T07:11:14.170Z,32.66
2019-06-26T07:12:14.154Z,32.59
2019-06-26T07:13:14.154Z,32.40
2019-06-26T07:14:14.147Z,32.44
2019-06-26T07:15:14.122Z,32.33
2019-06-26T07:16:14.121Z,32.27
2019-06-26T07:17:20.581Z,32.32
2019-06-26T07:18:15.098Z,32.21
2019-06-26T07:19:14.080Z,32.05
2019-06-26T07:20:14.070Z,32.02
2019-06-26T07:21:14.059Z,32.02
2019-06-26T07:22:14.054Z,32.06
2019-06-26T07:23:14.047Z,32.21
2019-06-26T07:24:14.030Z,32.21
2019-06-26T07:25:14.021Z,32.10
2019-06-26T07:26:14.009Z,32.14
2019-06-26T07:27:13.996Z,32.03
2019-06-26T07:28:14.082Z,32.03
2019-06-26T07:29:13.976Z,31.93
2019-06-26T07:30:13.965Z,32.05
2019-06-26T07:31:13.957Z,31.98
2019-06-26T07:32:13.944Z,31.96
2019-06-26T07:33:13.959Z,31.80
2019-06-26T07:34:13.923Z,31.84
2019-06-26T07:35:13.921Z,32.05
2019-06-26T07:36:13.916Z,32.06
2019-06-26T07:37:13.898Z,32.18
2019-06-26T07:38:13.892Z,32.27
2019-06-26T07:39:13.874Z,32.42
2019-06-26T07:40:13.862Z,32.61
2019-06-26T07:41:13.857Z,32.54
2019-06-26T07:42:13.842Z,32.49
2019-06-26T07:43:16.426Z,32.47
2019-06-26T07:44:13.818Z,32.51
2019-06-26T07:45:13.810Z,32.54
2019-06-26T07:46:13.798Z,32.62
2019-06-26T07:47:22.970Z,32.57
2019-06-26T07:48:14.791Z,32.58
2019-06-26T07:49:13.767Z,32.47
2019-06-26T07:50:13.760Z,32.57
2019-06-26T07:51:13.745Z,32.61
2019-06-26T07:52:13.735Z,32.80
2019-06-26T07:53:13.726Z,32.73
2019-06-26T07:54:13.730Z,32.58
2019-06-26T07:55:13.710Z,32.49
2019-06-26T07:56:13.698Z,32.33
2019-06-26T07:57:13.686Z,32.10
2019-06-26T07:58:13.673Z,32.21
2019-06-26T07:59:13.680Z,32.20
2019-06-26T08:00:13.653Z,32.06
2019-06-26T08:01:13.647Z,32.21
2019-06-26T08:02:13.636Z,32.33
2019-06-26T08:03:13.624Z,32.27
2019-06-26T08:04:13.622Z,32.35
2019-06-26T08:05:13.607Z,32.32
2019-06-26T08:06:13.592Z,32.27
2019-06-26T08:07:13.581Z,32.36
2019-06-26T08:08:14.877Z,32.30
2019-06-26T08:09:13.567Z,32.22
2019-06-26T08:10:13.551Z,32.21
2019-06-26T08:11:13.539Z,32.17
2019-06-26T08:12:13.527Z,32.13
2019-06-26T08:13:13.528Z,32.29
2019-06-26T08:14:13.524Z,32.24
2019-06-26T08:15:13.596Z,32.47
2019-06-26T08:16:13.550Z,32.62
2019-06-26T08:17:13.564Z,32.67
2019-06-26T08:18:13.475Z,32.61
2019-06-26T08:19:13.502Z,32.61
2019-06-26T08:20:13.459Z,32.73
2019-06-26T08:21:13.454Z,32.95
2019-06-26T08:22:13.516Z,33.04
2019-06-26T08:23:13.458Z,32.89
2019-06-26T08:24:13.421Z,32.92
2019-06-26T08:25:13.404Z,33.13
2019-06-26T08:26:13.383Z,33.26
2019-06-26T08:27:13.402Z,33.37
2019-06-26T08:28:13.434Z,33.61
2019-06-26T08:29:13.468Z,33.79
2019-06-26T08:30:13.582Z,34.00
2019-06-26T08:31:13.379Z,34.07
2019-06-26T08:32:13.320Z,34.05
2019-06-26T08:33:13.316Z,33.95
2019-06-26T08:34:13.308Z,33.86
2019-06-26T08:35:13.347Z,33.82
2019-06-26T08:36:13.280Z,33.79
2019-06-26T08:37:13.344Z,33.79
2019-06-26T08:38:15.599Z,33.89
2019-06-26T08:39:13.316Z,33.80
2019-06-26T08:40:13.399Z,33.73
2019-06-26T08:41:13.231Z,33.74
2019-06-26T08:42:13.219Z,33.76
2019-06-26T08:43:13.223Z,33.64
2019-06-26T08:44:13.200Z,33.70
2019-06-26T08:45:13.198Z,33.73
2019-06-26T08:46:13.174Z,33.65
2019-06-26T08:47:13.168Z,33.76
2019-06-26T08:48:19.358Z,33.74
2019-06-26T08:49:25.074Z,33.95
2019-06-26T08:50:14.150Z,34.04
2019-06-26T08:51:13.124Z,34.20
2019-06-26T08:52:13.119Z,34.36
2019-06-26T08:53:13.110Z,34.46
2019-06-26T08:54:13.100Z,34.66
2019-06-26T08:55:13.093Z,34.66
2019-06-26T08:56:13.076Z,34.69
2019-06-26T08:57:13.064Z,34.80
2019-06-26T08:58:13.052Z,34.79
2019-06-26T08:59:13.043Z,34.84
2019-06-26T09:00:13.046Z,35.01
2019-06-26T09:01:13.031Z,35.26
2019-06-26T09:02:13.021Z,35.40
2019-06-26T09:03:13.002Z,35.60
2019-06-26T09:04:12.995Z,35.88
2019-06-26T09:05:12.993Z,36.03
2019-06-26T09:06:12.973Z,36.30
2019-06-26T09:07:12.963Z,36.48
2019-06-26T09:08:13.052Z,36.51
2019-06-26T09:09:12.947Z,36.43
2019-06-26T09:10:12.944Z,36.64
2019-06-26T09:11:12.925Z,36.87
2019-06-26T09:12:12.915Z,37.17
2019-06-26T09:13:12.906Z,37.41
2019-06-26T09:14:12.896Z,37.51
2019-06-26T09:15:12.904Z,37.64
2019-06-26T09:16:12.886Z,37.77
2019-06-26T09:17:12.869Z,37.68
2019-06-26T09:18:12.895Z,37.55
2019-06-26T09:19:12.854Z,37.66
2019-06-26T09:20:12.947Z,37.77
2019-06-26T09:21:12.889Z,37.92
2019-06-26T09:22:12.821Z,38.05
2019-06-26T09:23:12.811Z,38.18
2019-06-26T09:24:12.801Z,38.23
2019-06-26T09:25:21.756Z,38.45
2019-06-26T09:26:13.783Z,38.66
2019-06-26T09:27:14.988Z,38.90
2019-06-26T09:28:12.783Z,39.06
2019-06-26T09:29:12.775Z,39.30
2019-06-26T09:30:12.898Z,39.36
2019-06-26T09:31:12.737Z,39.37
2019-06-26T09:32:12.742Z,39.47
2019-06-26T09:33:12.721Z,39.46
2019-06-26T09:34:12.720Z,39.59
2019-06-26T09:35:12.715Z,39.70
2019-06-26T09:36:12.703Z,39.73
2019-06-26T09:37:12.686Z,39.78
2019-06-26T09:38:12.825Z,39.78
2019-06-26T09:39:12.665Z,39.80
2019-06-26T09:40:12.658Z,40.07
2019-06-26T09:41:12.654Z,40.04
2019-06-26T09:42:12.640Z,40.12
2019-06-26T09:43:12.628Z,39.98
2019-06-26T09:44:12.621Z,40.00
2019-06-26T09:45:12.626Z,39.84
2019-06-26T09:46:12.609Z,39.77
2019-06-26T09:47:15.605Z,39.78
2019-06-26T09:48:12.583Z,39.76
2019-06-26T09:49:12.611Z,39.73
2019-06-26T09:50:12.564Z,39.83
2019-06-26T09:51:12.565Z,39.93
2019-06-26T09:52:12.605Z,40.15
2019-06-26T09:53:12.625Z,40.33
2019-06-26T09:54:12.536Z,40.47
2019-06-26T09:55:12.521Z,40.53
2019-06-26T09:56:12.539Z,40.46
2019-06-26T09:57:12.503Z,40.45
2019-06-26T09:58:13.489Z,40.61
2019-06-26T09:59:12.487Z,40.65
2019-06-26T10:00:12.483Z,40.69
2019-06-26T10:01:12.659Z,40.59
2019-06-26T10:02:12.461Z,40.72
2019-06-26T10:03:12.451Z,40.61
2019-06-26T10:04:12.489Z,40.76
2019-06-26T10:05:12.434Z,40.71
2019-06-26T10:06:12.438Z,40.75
2019-06-26T10:07:12.427Z,40.91
2019-06-26T10:08:12.412Z,41.18
2019-06-26T10:09:12.400Z,41.21
2019-06-26T10:10:12.399Z,41.36
2019-06-26T10:11:12.412Z,41.40
2019-06-26T10:12:12.374Z,41.41
2019-06-26T10:13:12.417Z,41.40
2019-06-26T10:14:12.357Z,41.47
2019-06-26T10:15:12.348Z,41.52
2019-06-26T10:16:12.354Z,41.59
2019-06-26T10:17:12.333Z,41.49
2019-06-26T10:18:12.326Z,41.31
2019-06-26T10:19:12.317Z,41.33
2019-06-26T10:20:12.316Z,41.36
2019-06-26T10:21:12.301Z,41.33
2019-06-26T10:22:12.317Z,41.34
2019-06-26T10:23:12.282Z,41.39
2019-06-26T10:24:12.276Z,41.55
2019-06-26T10:25:12.278Z,41.65
2019-06-26T10:26:12.261Z,41.74
2019-06-26T10:27:12.259Z,41.75
2019-06-26T10:28:12.246Z,41.47
2019-06-26T10:29:12.242Z,41.40
2019-06-26T10:30:12.225Z,41.46
2019-06-26T10:31:12.216Z,41.46
2019-06-26T10:32:12.218Z,41.50
2019-06-26T10:33:12.200Z,41.47
2019-06-26T10:34:12.194Z,41.52
2019-06-26T10:35:12.184Z,41.59
2019-06-26T10:36:12.177Z,41.59
2019-06-26T10:37:12.175Z,41.62
2019-06-26T10:38:12.158Z,41.40
2019-06-26T10:39:12.262Z,41.49
2019-06-26T10:40:15.988Z,41.54
2019-06-26T10:41:12.150Z,41.59
2019-06-26T10:42:12.142Z,41.68
2019-06-26T10:43:12.127Z,41.56
2019-06-26T10:44:12.111Z,41.44
2019-06-26T10:45:12.252Z,41.34
2019-06-26T10:46:12.136Z,41.46
2019-06-26T10:47:12.103Z,41.65
2019-06-26T10:48:12.088Z,41.65
2019-06-26T10:49:25.806Z,41.91
2019-06-26T10:50:13.063Z,41.93
2019-06-26T10:51:12.053Z,42.16
2019-06-26T10:52:12.043Z,42.29
2019-06-26T10:53:12.048Z,42.38
2019-06-26T10:54:12.035Z,42.53
2019-06-26T10:55:12.039Z,42.44
2019-06-26T10:56:12.022Z,42.51
2019-06-26T10:57:12.002Z,42.54
2019-06-26T10:58:12.150Z,42.27
2019-06-26T10:59:11.985Z,42.22
2019-06-26T11:00:11.984Z,42.25
2019-06-26T11:01:11.969Z,42.42
2019-06-26T11:02:11.964Z,42.49
2019-06-26T11:03:11.961Z,42.54
2019-06-26T11:04:11.947Z,42.72
2019-06-26T11:05:11.948Z,42.50
2019-06-26T11:06:11.931Z,42.70
2019-06-26T11:07:11.931Z,42.69
2019-06-26T11:08:11.958Z,42.73
2019-06-26T11:09:11.907Z,42.63
2019-06-26T11:10:11.907Z,42.65
2019-06-26T11:11:11.887Z,42.50
2019-06-26T11:12:12.039Z,42.46
2019-06-26T11:13:11.939Z,42.51
2019-06-26T11:14:11.862Z,42.37
2019-06-26T11:15:11.863Z,42.19
2019-06-26T11:16:11.860Z,42.22
2019-06-26T11:17:11.845Z,42.20
2019-06-26T11:18:11.840Z,42.19
2019-06-26T11:19:11.824Z,42.16
2019-06-26T11:20:11.823Z,42.12
2019-06-26T11:21:11.810Z,42.16
2019-06-26T11:22:11.813Z,42.25
2019-06-26T11:23:11.796Z,42.28
2019-06-26T11:24:11.779Z,42.28
2019-06-26T11:25:11.884Z,42.32
2019-06-26T11:26:11.856Z,42.35
2019-06-26T11:27:11.820Z,42.38
2019-06-26T11:28:11.987Z,42.28
2019-06-26T11:29:11.748Z,42.19
2019-06-26T11:30:11.821Z,42.05
2019-06-26T11:31:11.786Z,42.12
2019-06-26T11:32:11.808Z,41.85
2019-06-26T11:33:11.795Z,41.70
2019-06-26T11:34:11.772Z,41.58
2019-06-26T11:35:11.739Z,41.66
2019-06-26T11:36:11.722Z,41.86
2019-06-26T11:37:11.738Z,41.94
2019-06-26T11:38:11.853Z,41.91
2019-06-26T11:39:11.711Z,41.94
2019-06-26T11:40:11.779Z,41.97
2019-06-26T11:41:11.735Z,41.73
2019-06-26T11:42:11.704Z,41.70
2019-06-26T11:43:11.852Z,41.62
2019-06-26T11:44:11.600Z,41.50
2019-06-26T11:45:11.600Z,41.52
2019-06-26T11:46:11.579Z,41.39
2019-06-26T11:47:11.620Z,41.31
2019-06-26T11:48:11.566Z,41.29
2019-06-26T11:49:11.582Z,41.31
2019-06-26T11:50:11.633Z,41.41
2019-06-26T11:51:11.529Z,41.41
2019-06-26T11:52:11.532Z,41.43
2019-06-26T11:53:11.583Z,41.71
2019-06-26T11:54:11.501Z,41.61
2019-06-26T11:55:11.491Z,41.66
2019-06-26T11:56:11.530Z,41.63
2019-06-26T11:57:11.477Z,41.71
2019-06-26T11:58:11.562Z,41.74
2019-06-26T11:59:11.463Z,41.65
2019-06-26T12:00:11.542Z,41.59
2019-06-26T12:01:11.444Z,41.61
2019-06-26T12:02:11.429Z,41.58
2019-06-26T12:03:13.319Z,41.62
2019-06-26T12:04:11.419Z,41.81
2019-06-26T12:05:11.407Z,41.71
2019-06-26T12:06:18.593Z,41.78
2019-06-26T12:07:12.376Z,41.86
2019-06-26T12:08:11.384Z,41.90
2019-06-26T12:09:11.403Z,41.98
2019-06-26T12:10:11.562Z,41.98
2019-06-26T12:11:11.347Z,42.09
2019-06-26T12:12:11.332Z,42.04
2019-06-26T12:13:11.314Z,42.05
2019-06-26T12:14:11.330Z,42.15
2019-06-26T12:15:11.359Z,42.19
2019-06-26T12:16:11.286Z,42.13
2019-06-26T12:17:11.288Z,42.20
2019-06-26T12:18:11.264Z,42.27
2019-06-26T12:19:11.266Z,42.12
2019-06-26T12:20:18.483Z,42.01
2019-06-26T12:21:12.364Z,42.04
2019-06-26T12:22:11.233Z,41.82
2019-06-26T12:23:11.216Z,41.62
2019-06-26T12:24:11.280Z,41.55
2019-06-26T12:25:11.200Z,41.56
2019-06-26T12:26:11.186Z,41.61
2019-06-26T12:27:11.181Z,41.54
2019-06-26T12:28:11.172Z,41.52
2019-06-26T12:29:11.170Z,41.49
2019-06-26T12:30:11.146Z,41.61
2019-06-26T12:31:11.160Z,41.55
2019-06-26T12:32:11.130Z,41.58
2019-06-26T12:33:11.118Z,41.59
2019-06-26T12:34:11.131Z,41.47
2019-06-26T12:35:11.105Z,41.40
2019-06-26T12:36:11.086Z,41.21
2019-06-26T12:37:11.119Z,41.31
2019-06-26T12:38:11.074Z,41.36
2019-06-26T12:39:11.056Z,41.27
2019-06-26T12:40:11.101Z,41.28
2019-06-26T12:41:11.061Z,41.28
2019-06-26T12:42:11.028Z,41.28
2019-06-26T12:43:11.219Z,41.28
2019-06-26T12:44:11.010Z,41.25
2019-06-26T12:45:11.005Z,41.22
2019-06-26T12:46:10.989Z,41.25
2019-06-26T12:47:10.978Z,41.27
2019-06-26T12:48:10.968Z,41.17
2019-06-26T12:49:10.972Z,41.13
2019-06-26T12:50:10.965Z,40.93
2019-06-26T12:51:10.943Z,40.80
2019-06-26T12:52:10.931Z,40.61